Hlavní strana
METAR-TAF:

METAR-TAF

Letiště :

Niamey, Niger

zeměpisná šířka: 13-29N, zeměpisná délka: 002-10E, výška: 223 m

Aktuální stav počasí

Zpráva byla vytvořena před 23 minutami, v 08:00 UTC
Východní vítr 5 kt
Teplota 24°C
Vlhkost vzduchu 18%
Tlak 1014 hPa
Viditelnost: 4500 m
rozsáhlý prach

METAR: DRRN 110800Z 09005KT 4500 DU NSC 24/M02 Q1014 BECMG 6000

Čas: 09:23 (08:23 UTC)

Předpověď počasí

Zpráva byla vytvořena před 3 hodinami a 23 minutami, v 05:00 UTC
Předpověď platná od 11 v 06 UTC do 12 v 12 UTC
Východní vítr 10 kt
Viditelnost: 8000 m
Dočasný
od 11 v 06 UTC do 11 v 09 UTC
Viditelnost: 3500 m
rozsáhlý prach
Dočasný
od 11 v 17 UTC do 11 v 21 UTC
Viditelnost: 3500 m
rozsáhlý prach
Dočasný
od 12 v 06 UTC do 12 v 09 UTC
Viditelnost: 3500 m
rozsáhlý prach

TAF: DRRN 110500Z 1106/1212 08010KT 8000 NSC TEMPO 1106/1109 3500 DU TEMPO 1117/1121 3500 DU TEMPO 1206/1209 3500 DU

Stav a předpovědi počasí z více než 4 000 letišť (zprávy METAR a TAF).

Červené a žluté tečky na mapě představují dostupné meteorologické stanice.

Když kurzor umístíte na tečku, zobrazí se název stanice.

Pak kliknutím zobrazíte stav a předpověď počasí.

Chcete-li změnit mapu, kliknutím na zelené tlačítko se znaménkem +mapu přiblížíte, kliknutím na zelené tlačítko se znaménkem – mapu oddálíte a kliknutím na zelené šipky přejdete na sousední mapy.


METAR-TAF: